createdAt,value
2022-10-12T00:01:12.558Z,99268.38
2022-10-12T00:03:41.210Z,99272.09
2022-10-12T00:06:11.653Z,99267.56
2022-10-12T00:08:40.972Z,99271.25
2022-10-12T00:11:12.232Z,99265.88
2022-10-12T00:13:40.794Z,99271.25
2022-10-12T00:16:12.117Z,99270.25
2022-10-12T00:18:40.844Z,99271.25
2022-10-12T00:21:10.860Z,99265.69
2022-10-12T00:23:39.603Z,99271.78
2022-10-12T00:26:09.425Z,99270.09
2022-10-12T00:28:38.051Z,99269.41
2022-10-12T00:31:10.423Z,99273.94
2022-10-12T00:33:39.154Z,99266.84
2022-10-12T00:36:16.079Z,99273.94
2022-10-12T00:38:44.666Z,99269.53
2022-10-12T00:41:13.340Z,99274.94
2022-10-12T00:43:43.144Z,99271.41
2022-10-12T00:46:17.942Z,99272.25
2022-10-12T00:48:47.006Z,99269.53
2022-10-12T00:51:15.465Z,99276.78
2022-10-12T00:53:46.895Z,99284.03
2022-10-12T00:56:18.243Z,99276.78
2022-10-12T00:58:47.049Z,99276.78
2022-10-12T01:01:17.003Z,99265.19
2022-10-12T01:03:45.650Z,99271.41
2022-10-12T01:06:14.124Z,99269.72
2022-10-12T01:08:42.632Z,99275.09
2022-10-12T01:11:11.699Z,99266.03
2022-10-12T01:13:40.385Z,99263.31
2022-10-12T01:16:12.640Z,99272.25
2022-10-12T01:18:46.882Z,99262.50
2022-10-12T01:21:19.471Z,99266.03
2022-10-12T01:24:20.009Z,99259.81
2022-10-12T01:27:04.929Z,99261.66
2022-10-12T01:30:16.425Z,99262.50
2022-10-12T01:33:09.347Z,99261.66
2022-10-12T01:35:43.657Z,99262.50
2022-10-12T01:38:22.657Z,99263.47
2022-10-12T01:40:55.777Z,99268.84
2022-10-12T01:43:24.530Z,99263.47
2022-10-12T01:45:54.613Z,99267.03
2022-10-12T01:48:23.165Z,99275.09
2022-10-12T01:50:53.513Z,99267.88
2022-10-12T01:53:29.242Z,99270.72
2022-10-12T01:56:00.658Z,99272.56
2022-10-12T01:58:40.741Z,99269.72
2022-10-12T02:01:17.674Z,99272.56
2022-10-12T02:03:49.657Z,99268.03
2022-10-12T02:06:19.751Z,99277.94
2022-10-12T02:08:51.614Z,99267.19
2022-10-12T02:11:22.208Z,99267.19
2022-10-12T02:13:52.676Z,99260.13
2022-10-12T02:16:26.858Z,99271.72
2022-10-12T02:18:56.633Z,99263.66
2022-10-12T02:21:27.686Z,99264.50
2022-10-12T02:23:56.217Z,99262.81
2022-10-12T02:26:24.753Z,99263.66
2022-10-12T02:28:53.344Z,99264.50
2022-10-12T02:31:29.798Z,99265.50
2022-10-12T02:34:06.077Z,99267.19
2022-10-12T02:36:39.013Z,99269.88
2022-10-12T02:39:10.788Z,99276.28
2022-10-12T02:41:42.174Z,99270.88
2022-10-12T02:44:11.865Z,99269.03
2022-10-12T02:46:42.018Z,99277.09
2022-10-12T02:49:10.637Z,99277.09
2022-10-12T02:51:39.828Z,99270.88
2022-10-12T02:54:08.277Z,99272.72
2022-10-12T02:56:36.807Z,99279.94
2022-10-12T02:59:05.361Z,99266.50
2022-10-12T03:01:33.952Z,99274.56
2022-10-12T03:04:04.027Z,99279.09
2022-10-12T03:06:32.560Z,99261.09
2022-10-12T03:09:01.715Z,99271.22
2022-10-12T03:11:30.368Z,99268.53
2022-10-12T03:13:59.136Z,99259.56
2022-10-12T03:16:27.890Z,99257.75
2022-10-12T03:18:56.394Z,99256.03
2022-10-12T03:21:26.431Z,99258.72
2022-10-12T03:23:55.037Z,99258.72
2022-10-12T03:26:23.553Z,99258.72
2022-10-12T03:28:52.062Z,99257.03
2022-10-12T03:31:20.647Z,99258.72
2022-10-12T03:33:49.310Z,99257.03
2022-10-12T03:36:17.817Z,99263.25
2022-10-12T03:38:47.762Z,99255.19
2022-10-12T03:41:16.223Z,99265.94
2022-10-12T03:43:44.716Z,99269.66
2022-10-12T03:46:13.913Z,99268.78
2022-10-12T03:48:42.482Z,99264.25
2022-10-12T03:51:11.039Z,99266.97
2022-10-12T03:53:45.019Z,99270.63
2022-10-12T03:56:15.324Z,99275.03
2022-10-12T03:58:43.865Z,99271.47
2022-10-12T04:01:12.415Z,99272.34
2022-10-12T04:03:40.970Z,99262.56
2022-10-12T04:06:09.480Z,99271.47
2022-10-12T04:08:40.150Z,99267.94
2022-10-12T04:11:08.927Z,99274.16
2022-10-12T04:13:38.987Z,99267.94
2022-10-12T04:16:10.284Z,99277.03
2022-10-12T04:18:38.751Z,99268.94
2022-10-12T04:21:10.228Z,99275.16
2022-10-12T04:23:38.858Z,99283.25
2022-10-12T04:26:07.482Z,99274.34
2022-10-12T04:28:36.152Z,99275.16
2022-10-12T04:31:06.097Z,99275.16
2022-10-12T04:33:34.562Z,99276.19
2022-10-12T04:36:03.131Z,99282.41
2022-10-12T04:38:31.678Z,99272.63
2022-10-12T04:41:00.319Z,99279.84
2022-10-12T04:43:28.743Z,99276.19
2022-10-12T04:45:57.668Z,99270.94
2022-10-12T04:48:28.088Z,99278.88
2022-10-12T04:50:56.604Z,99282.56
2022-10-12T04:53:25.212Z,99282.56
2022-10-12T04:55:53.719Z,99282.56
2022-10-12T04:58:22.185Z,99280.56
2022-10-12T05:00:50.970Z,99282.22
2022-10-12T05:03:19.400Z,99282.41
2022-10-12T05:05:49.662Z,99278.88
2022-10-12T05:08:18.039Z,99284.09
2022-10-12T05:10:47.375Z,99284.91
2022-10-12T05:13:15.958Z,99286.47
2022-10-12T05:15:44.596Z,99290.03
2022-10-12T05:18:13.101Z,99292.75
2022-10-12T05:20:41.692Z,99291.72
2022-10-12T05:23:12.352Z,99291.03
2022-10-12T05:25:40.940Z,99300.63
2022-10-12T05:28:09.542Z,99304.06
2022-10-12T05:30:38.078Z,99303.38
2022-10-12T05:33:06.548Z,99301.25
2022-10-12T05:35:35.220Z,99307.78
2022-10-12T05:38:03.759Z,99300.88
2022-10-12T05:40:33.765Z,99302.34
2022-10-12T05:43:02.719Z,99300.63
2022-10-12T05:45:31.309Z,99295.94
2022-10-12T05:47:59.774Z,99311.25
2022-10-12T05:50:28.247Z,99301.00
2022-10-12T05:52:56.908Z,99306.00
2022-10-12T05:55:25.414Z,99308.03
2022-10-12T05:57:55.438Z,99306.19
2022-10-12T06:00:24.126Z,99305.34
2022-10-12T06:02:52.864Z,99298.97
2022-10-12T06:05:21.420Z,99308.09
2022-10-12T06:07:50.024Z,99314.84
2022-10-12T06:10:18.706Z,99310.47
2022-10-12T06:12:47.271Z,99308.25
2022-10-12T06:15:17.405Z,99314.47
2022-10-12T06:17:45.956Z,99309.09
2022-10-12T06:20:14.570Z,99309.78
2022-10-12T06:22:43.195Z,99310.78
2022-10-12T06:25:11.907Z,99308.47
2022-10-12T06:27:40.412Z,99316.53
2022-10-12T06:30:09.884Z,99319.38
2022-10-12T06:32:40.344Z,99315.69
2022-10-12T06:35:10.400Z,99319.91
2022-10-12T06:37:49.476Z,99317.94
2022-10-12T06:40:19.279Z,99316.53
2022-10-12T06:42:47.894Z,99306.75
2022-10-12T06:45:16.594Z,99307.94
2022-10-12T06:47:46.567Z,99317.69
2022-10-12T06:50:15.098Z,99321.22
2022-10-12T06:52:44.159Z,99323.09
2022-10-12T06:55:14.990Z,99324.75
2022-10-12T06:57:43.538Z,99321.06
2022-10-12T07:00:13.589Z,99328.16
2022-10-12T07:02:42.273Z,99324.63
2022-10-12T07:05:12.344Z,99320.91
2022-10-12T07:07:40.962Z,99327.13
2022-10-12T07:10:10.474Z,99316.53
2022-10-12T07:12:40.703Z,99327.13
2022-10-12T07:15:10.624Z,99324.44
2022-10-12T07:17:39.433Z,99325.28
2022-10-12T07:20:08.944Z,99326.16
2022-10-12T07:22:38.963Z,99334.38
2022-10-12T07:25:08.799Z,99333.09
2022-10-12T07:27:37.666Z,99332.09
2022-10-12T07:30:07.729Z,99333.44
2022-10-12T07:32:36.902Z,99331.91
2022-10-12T07:35:06.496Z,99328.69
2022-10-12T07:37:34.933Z,99331.38
2022-10-12T07:40:05.284Z,99335.06
2022-10-12T07:42:33.983Z,99331.53
2022-10-12T07:45:02.611Z,99318.91
2022-10-12T07:47:31.210Z,99320.63
2022-10-12T07:49:59.743Z,99318.91
2022-10-12T07:52:28.478Z,99326.00
2022-10-12T07:54:57.083Z,99320.78
2022-10-12T07:57:26.908Z,99324.16
2022-10-12T07:59:55.756Z,99324.16
2022-10-12T08:02:24.206Z,99317.06
2022-10-12T08:04:53.409Z,99316.22
2022-10-12T08:07:22.195Z,99328.69
2022-10-12T08:09:50.826Z,99324.16
2022-10-12T08:12:19.378Z,99322.16
2022-10-12T08:14:49.458Z,99323.19
2022-10-12T08:17:18.041Z,99322.34
2022-10-12T08:19:46.598Z,99324.00
2022-10-12T08:22:15.596Z,99321.31
2022-10-12T08:24:44.219Z,99325.69
2022-10-12T08:27:12.779Z,99319.31
2022-10-12T08:29:41.358Z,99328.25
2022-10-12T08:32:11.322Z,99327.41
2022-10-12T08:34:39.778Z,99322.03
2022-10-12T08:37:08.521Z,99319.31
2022-10-12T08:39:40.294Z,99329.06
2022-10-12T08:42:17.768Z,99326.38
2022-10-12T08:45:04.899Z,99332.59
2022-10-12T08:47:39.946Z,99321.84
2022-10-12T08:50:12.759Z,99322.69
2022-10-12T08:52:44.766Z,99332.47
2022-10-12T08:55:21.862Z,99331.63
2022-10-12T08:57:50.474Z,99327.09
2022-10-12T09:00:20.215Z,99320.69
2022-10-12T09:03:02.155Z,99324.38
2022-10-12T09:05:34.704Z,99320.69
2022-10-12T09:08:05.675Z,99319.00
2022-10-12T09:10:44.209Z,99326.91
2022-10-12T09:13:22.295Z,99319.69
2022-10-12T09:15:53.759Z,99316.13
2022-10-12T09:18:28.866Z,99317.00
2022-10-12T09:20:57.373Z,99309.91
2022-10-12T09:23:27.351Z,99307.22
2022-10-12T09:26:02.605Z,99302.84
2022-10-12T09:28:37.736Z,99305.38
2022-10-12T09:31:19.165Z,99298.31
2022-10-12T09:33:52.406Z,99306.75
2022-10-12T09:36:23.687Z,99301.38
2022-10-12T09:38:52.223Z,99304.22
2022-10-12T09:41:23.213Z,99304.22
2022-10-12T09:43:52.671Z,99305.09
2022-10-12T09:46:24.217Z,99297.00
2022-10-12T09:49:00.912Z,99301.38
2022-10-12T09:51:30.004Z,99311.81
2022-10-12T09:54:03.400Z,99309.81
2022-10-12T09:56:39.835Z,99307.28
2022-10-12T09:59:24.767Z,99302.91
2022-10-12T10:02:05.878Z,99308.28
2022-10-12T10:04:35.832Z,99305.59
2022-10-12T10:07:28.203Z,99300.22
2022-10-12T10:10:18.311Z,99295.66
2022-10-12T10:12:51.898Z,99302.06
2022-10-12T10:15:23.799Z,99297.53
2022-10-12T10:17:54.355Z,99293.13
2022-10-12T10:20:29.612Z,99300.22
2022-10-12T10:22:58.239Z,99302.91
2022-10-12T10:25:27.042Z,99301.06
2022-10-12T10:28:22.657Z,99303.75
2022-10-12T10:31:01.020Z,99301.91
2022-10-12T10:33:29.663Z,99302.06
2022-10-12T10:36:06.311Z,99294.84
2022-10-12T10:38:48.964Z,99293.13
2022-10-12T10:41:18.395Z,99291.31
2022-10-12T10:43:47.700Z,99294.00
2022-10-12T10:46:16.656Z,99288.63
2022-10-12T10:48:53.275Z,99294.97
2022-10-12T10:51:23.289Z,99288.63
2022-10-12T10:53:52.088Z,99288.63
2022-10-12T10:56:23.082Z,99287.75
2022-10-12T10:58:52.987Z,99285.06
2022-10-12T11:01:25.419Z,99279.66
2022-10-12T11:03:57.774Z,99280.53
2022-10-12T11:06:37.194Z,99278.69
2022-10-12T11:09:08.131Z,99277.84
2022-10-12T11:11:37.806Z,99277.84
2022-10-12T11:14:13.460Z,99273.31
2022-10-12T11:16:46.762Z,99265.22
2022-10-12T11:19:31.100Z,99268.75
2022-10-12T11:22:03.534Z,99273.31
2022-10-12T11:24:36.252Z,99265.22
2022-10-12T11:27:06.948Z,99271.59
2022-10-12T11:29:35.539Z,99260.81
2022-10-12T11:32:05.514Z,99260.81
2022-10-12T11:34:40.330Z,99258.13
2022-10-12T11:37:20.616Z,99250.06
2022-10-12T11:39:51.191Z,99255.44
2022-10-12T11:42:28.892Z,99259.16
2022-10-12T11:44:57.483Z,99248.38
2022-10-12T11:47:33.084Z,99243.84
2022-10-12T11:50:03.060Z,99249.22
2022-10-12T11:52:38.163Z,99244.69
2022-10-12T11:55:37.490Z,99233.91
2022-10-12T11:58:13.475Z,99237.47
2022-10-12T12:00:54.088Z,99243.84
2022-10-12T12:03:26.775Z,99246.53
2022-10-12T12:05:55.640Z,99242.16
2022-10-12T12:08:59.858Z,99246.72
2022-10-12T12:11:29.984Z,99229.72
2022-10-12T12:14:50.379Z,99235.94
2022-10-12T12:17:29.338Z,99229.72
2022-10-12T12:20:00.957Z,99233.25
2022-10-12T12:22:35.350Z,99238.47
2022-10-12T12:25:18.846Z,99228.72
2022-10-12T12:27:50.272Z,99230.56
2022-10-12T12:30:38.042Z,99226.00
2022-10-12T12:33:25.907Z,99222.31
2022-10-12T12:35:56.782Z,99224.16
2022-10-12T12:38:31.240Z,99217.94
2022-10-12T12:41:07.850Z,99220.63
2022-10-12T12:44:01.540Z,99220.63
2022-10-12T12:47:43.854Z,99209.03
2022-10-12T12:50:29.755Z,99214.41
2022-10-12T12:53:04.216Z,99210.69
2022-10-12T12:55:57.320Z,99204.50
2022-10-12T12:59:02.467Z,99204.50
2022-10-12T13:01:50.127Z,99201.94
2022-10-12T13:04:36.023Z,99204.31
2022-10-12T13:07:48.897Z,99199.78
2022-10-12T13:10:29.465Z,99205.31
2022-10-12T13:13:38.763Z,99199.09
2022-10-12T13:19:22.446Z,99199.94
2022-10-12T13:21:52.680Z,99201.78
2022-10-12T13:24:24.392Z,99205.50
2022-10-12T13:26:54.700Z,99206.34
2022-10-12T13:29:30.739Z,99198.28
2022-10-12T13:32:00.982Z,99200.97
2022-10-12T13:34:33.090Z,99195.56
2022-10-12T13:37:03.151Z,99196.56
2022-10-12T13:39:36.398Z,99197.44
2022-10-12T13:42:06.996Z,99193.88
2022-10-12T13:44:37.586Z,99186.66
2022-10-12T13:47:24.884Z,99186.66
2022-10-12T13:49:53.567Z,99181.09
2022-10-12T13:52:29.610Z,99181.78
2022-10-12T13:55:00.820Z,99178.25
2022-10-12T13:57:31.930Z,99180.09
2022-10-12T14:00:05.342Z,99179.44
2022-10-12T14:02:33.902Z,99178.41
2022-10-12T14:05:06.527Z,99178.41
2022-10-12T14:07:36.673Z,99188.34
2022-10-12T14:10:07.879Z,99178.41
2022-10-12T14:12:36.582Z,99179.25
2022-10-12T14:15:07.816Z,99173.03
2022-10-12T14:17:44.666Z,99178.78
2022-10-12T14:20:18.795Z,99173.38
2022-10-12T14:22:48.661Z,99166.47
2022-10-12T14:25:19.584Z,99171.16
2022-10-12T14:27:48.139Z,99172.19
2022-10-12T14:30:21.377Z,99165.97
2022-10-12T14:32:50.306Z,99175.91
2022-10-12T14:35:27.432Z,99162.44
2022-10-12T14:37:56.450Z,99163.28
2022-10-12T14:40:30.393Z,99160.59
2022-10-12T14:43:04.957Z,99159.75
2022-10-12T14:45:35.257Z,99152.50
2022-10-12T14:48:05.057Z,99157.06
2022-10-12T14:50:34.025Z,99156.19
2022-10-12T14:53:04.482Z,99157.06
2022-10-12T14:55:34.135Z,99150.81
2022-10-12T14:58:03.761Z,99149.81
2022-10-12T15:00:35.386Z,99152.66
2022-10-12T15:03:04.347Z,99153.50
2022-10-12T15:05:33.752Z,99151.69
2022-10-12T15:08:07.318Z,99150.81
2022-10-12T15:10:36.006Z,99156.19
2022-10-12T15:13:04.569Z,99152.00
2022-10-12T15:15:38.254Z,99158.06
2022-10-12T15:18:07.479Z,99148.31
2022-10-12T15:20:36.604Z,99154.19
2022-10-12T15:23:05.259Z,99155.19
2022-10-12T15:25:43.964Z,99159.56
2022-10-12T15:28:13.125Z,99160.06
2022-10-12T15:31:11.843Z,99159.41
2022-10-12T15:33:32.103Z,99163.09
2022-10-12T15:36:00.610Z,99160.25
2022-10-12T15:38:29.207Z,99158.56
2022-10-12T15:40:58.361Z,99157.09
2022-10-12T15:43:27.175Z,99160.94
2022-10-12T15:45:57.570Z,99154.69
2022-10-12T15:48:27.862Z,99162.94
2022-10-12T15:50:56.379Z,99158.25
2022-10-12T15:53:26.277Z,99162.78
2022-10-12T15:55:55.268Z,99162.63
2022-10-12T15:58:23.949Z,99163.31
2022-10-12T16:00:52.598Z,99167.84
2022-10-12T16:03:25.928Z,99168.69
2022-10-12T16:05:55.159Z,99164.28
2022-10-12T16:08:23.738Z,99174.06
2022-10-12T16:10:52.598Z,99178.44
2022-10-12T16:13:21.458Z,99175.75
2022-10-12T16:15:50.131Z,99173.06
2022-10-12T16:18:18.869Z,99173.34
2022-10-12T16:20:53.539Z,99174.53
2022-10-12T16:23:23.836Z,99171.69
2022-10-12T16:25:52.492Z,99171.47
2022-10-12T16:28:21.014Z,99176.78
2022-10-12T16:30:50.114Z,99176.41
2022-10-12T16:33:19.002Z,99164.50
2022-10-12T16:35:48.903Z,99170.78
2022-10-12T16:38:19.916Z,99177.34
2022-10-12T16:40:49.926Z,99174.38
2022-10-12T16:43:19.513Z,99179.44
2022-10-12T16:45:56.948Z,99179.56
2022-10-12T16:48:25.511Z,99168.81
2022-10-12T16:50:55.367Z,99174.19
2022-10-12T16:53:23.860Z,99168.66
2022-10-12T16:55:52.572Z,99180.94
2022-10-12T16:58:21.051Z,99168.47
2022-10-12T17:00:49.594Z,99176.72
2022-10-12T17:03:18.168Z,99169.66
2022-10-12T17:05:47.944Z,99174.88
2022-10-12T17:08:17.797Z,99173.88
2022-10-12T17:10:46.415Z,99182.63
2022-10-12T17:13:15.133Z,99179.78
2022-10-12T17:15:43.758Z,99178.91
2022-10-12T17:18:12.461Z,99180.97
2022-10-12T17:20:41.024Z,99179.47
2022-10-12T17:23:09.492Z,99176.59
2022-10-12T17:25:39.437Z,99175.75
2022-10-12T17:28:08.143Z,99178.44
2022-10-12T17:30:38.387Z,99174.75
2022-10-12T17:33:06.937Z,99176.78
2022-10-12T17:35:40.100Z,99179.78
2022-10-12T17:38:08.680Z,99177.59
2022-10-12T17:40:39.771Z,99175.75
2022-10-12T17:43:08.374Z,99179.47
2022-10-12T17:45:39.970Z,99180.44
2022-10-12T17:48:09.134Z,99173.25
2022-10-12T17:50:37.755Z,99176.91
2022-10-12T17:53:06.380Z,99185.47
2022-10-12T17:55:48.472Z,99180.16
2022-10-12T17:58:17.636Z,99184.16
2022-10-12T18:00:46.274Z,99174.41
2022-10-12T18:03:14.947Z,99168.00
2022-10-12T18:05:43.455Z,99169.84
2022-10-12T18:08:12.157Z,99174.56
2022-10-12T18:10:42.667Z,99169.84
2022-10-12T18:13:11.340Z,99169.16
2022-10-12T18:15:44.387Z,99169.31
2022-10-12T18:18:15.338Z,99165.78
2022-10-12T18:20:44.111Z,99168.47
2022-10-12T18:23:12.755Z,99170.34
2022-10-12T18:25:43.024Z,99173.03
2022-10-12T18:28:12.519Z,99167.66
2022-10-12T18:30:47.123Z,99163.28
2022-10-12T18:33:16.217Z,99163.28
2022-10-12T18:35:44.845Z,99166.97
2022-10-12T18:38:13.726Z,99165.78
2022-10-12T18:40:43.715Z,99175.38
2022-10-12T18:43:12.489Z,99169.16
2022-10-12T18:45:43.475Z,99171.03
2022-10-12T18:48:12.709Z,99172.69
2022-10-12T18:50:41.358Z,99176.41
2022-10-12T18:53:10.022Z,99172.88
2022-10-12T18:55:38.931Z,99168.34
2022-10-12T18:58:08.939Z,99164.81
2022-10-12T19:00:38.119Z,99165.47
2022-10-12T19:03:07.018Z,99171.03
2022-10-12T19:05:35.606Z,99165.78
2022-10-12T19:08:04.275Z,99168.47
2022-10-12T19:10:32.859Z,99165.63
2022-10-12T19:13:01.699Z,99167.31
2022-10-12T19:15:31.658Z,99177.25
2022-10-12T19:18:00.475Z,99176.41
2022-10-12T19:20:32.444Z,99175.56
2022-10-12T19:23:00.959Z,99176.41
2022-10-12T19:25:30.543Z,99179.09
2022-10-12T19:27:59.907Z,99178.09
2022-10-12T19:30:29.252Z,99177.41
2022-10-12T19:32:59.138Z,99183.78
2022-10-12T19:35:28.720Z,99172.00
2022-10-12T19:37:57.324Z,99172.00
2022-10-12T19:40:25.910Z,99181.78
2022-10-12T19:42:54.427Z,99180.94
2022-10-12T19:45:23.381Z,99175.72
2022-10-12T19:47:52.190Z,99173.03
2022-10-12T19:50:22.177Z,99178.41
2022-10-12T19:52:50.675Z,99176.72
2022-10-12T19:55:19.523Z,99180.41
2022-10-12T19:57:50.605Z,99181.44
2022-10-12T20:00:21.813Z,99180.59
2022-10-12T20:02:50.955Z,99182.44
2022-10-12T20:05:21.745Z,99178.88
2022-10-12T20:07:52.316Z,99175.34
2022-10-12T20:10:21.648Z,99185.28
2022-10-12T20:12:50.197Z,99184.44
2022-10-12T20:15:18.948Z,99182.75
2022-10-12T20:17:47.387Z,99177.34
2022-10-12T20:20:16.963Z,99182.91
2022-10-12T20:22:47.039Z,99186.44
2022-10-12T20:25:15.823Z,99184.78
2022-10-12T20:27:44.424Z,99190.16
2022-10-12T20:30:13.966Z,99191.00
2022-10-12T20:32:42.467Z,99180.38
2022-10-12T20:35:11.006Z,99187.28
2022-10-12T20:37:39.585Z,99182.75
2022-10-12T20:40:11.457Z,99181.91
2022-10-12T20:42:40.027Z,99177.69
2022-10-12T20:45:10.633Z,99171.97
2022-10-12T20:47:39.250Z,99181.06
2022-10-12T20:50:08.520Z,99175.00
2022-10-12T20:52:37.204Z,99178.69
2022-10-12T20:55:10.359Z,99177.03
2022-10-12T20:57:38.852Z,99185.94
2022-10-12T21:00:08.970Z,99178.84
2022-10-12T21:02:38.568Z,99177.03
2022-10-12T21:05:08.143Z,99168.94
2022-10-12T21:07:36.757Z,99170.78
2022-10-12T21:10:06.808Z,99177.03
2022-10-12T21:12:38.848Z,99178.00
2022-10-12T21:15:08.711Z,99176.16
2022-10-12T21:17:37.228Z,99179.84
2022-10-12T21:20:06.817Z,99169.94
2022-10-12T21:22:35.442Z,99178.00
2022-10-12T21:25:03.989Z,99165.53
2022-10-12T21:27:32.508Z,99170.91
2022-10-12T21:30:02.425Z,99167.41
2022-10-12T21:32:31.884Z,99170.91
2022-10-12T21:35:00.489Z,99171.75
2022-10-12T21:37:29.917Z,99176.31
2022-10-12T21:39:58.496Z,99166.53
2022-10-12T21:42:27.065Z,99169.22
2022-10-12T21:44:55.672Z,99166.53
2022-10-12T21:47:25.616Z,99156.78
2022-10-12T21:49:54.344Z,99150.56
2022-10-12T21:52:22.909Z,99154.94
2022-10-12T21:54:51.556Z,99158.63
2022-10-12T21:57:20.099Z,99157.63
2022-10-12T21:59:49.600Z,99160.31
2022-10-12T22:02:18.452Z,99162.16
2022-10-12T22:04:48.498Z,99156.78
2022-10-12T22:07:17.308Z,99158.44
2022-10-12T22:09:45.979Z,99155.94
2022-10-12T22:12:14.649Z,99156.78
2022-10-12T22:14:43.390Z,99152.41
2022-10-12T22:17:11.975Z,99156.78
2022-10-12T22:19:41.082Z,99164.84
2022-10-12T22:22:11.087Z,99155.09
2022-10-12T22:24:39.948Z,99164.00
2022-10-12T22:27:08.500Z,99150.56
2022-10-12T22:29:37.210Z,99149.72
2022-10-12T22:32:06.218Z,99155.09
2022-10-12T22:34:34.923Z,99154.94
2022-10-12T22:37:03.428Z,99147.03
2022-10-12T22:39:33.524Z,99152.41
2022-10-12T22:42:03.857Z,99152.41
2022-10-12T22:44:33.574Z,99156.94
2022-10-12T22:47:02.070Z,99144.34
2022-10-12T22:49:30.700Z,99146.16
2022-10-12T22:51:59.161Z,99141.81
2022-10-12T22:54:27.703Z,99137.25
2022-10-12T22:56:57.494Z,99128.50
2022-10-12T22:59:26.366Z,99137.25
2022-10-12T23:01:54.937Z,99134.75
2022-10-12T23:04:23.655Z,99125.81
2022-10-12T23:06:52.229Z,99131.88
2022-10-12T23:09:20.855Z,99134.56
2022-10-12T23:11:50.851Z,99129.38
2022-10-12T23:14:20.965Z,99121.28
2022-10-12T23:16:49.449Z,99132.88
2022-10-12T23:19:18.007Z,99129.38
2022-10-12T23:21:48.347Z,99128.50
2022-10-12T23:24:16.948Z,99126.81
2022-10-12T23:26:45.558Z,99131.19
2022-10-12T23:29:14.134Z,99131.19
2022-10-12T23:31:44.098Z,99132.06
2022-10-12T23:34:12.645Z,99132.19
2022-10-12T23:36:41.162Z,99135.72
2022-10-12T23:39:09.709Z,99136.56
2022-10-12T23:41:38.409Z,99131.38
2022-10-12T23:44:06.846Z,99135.91
2022-10-12T23:46:35.585Z,99136.75
2022-10-12T23:49:05.455Z,99142.97
2022-10-12T23:51:34.085Z,99136.75
2022-10-12T23:54:02.616Z,99134.91
2022-10-12T23:56:31.270Z,99135.06
2022-10-12T23:59:00.654Z,99138.59
